Time;durP1;ratioP1;P1;durP2;ratioP2;P2;SDS_P1;SDS_P2;PMS_P1;PMS_P2;Temp;Humidity;BMP_temperature;BMP_pressure;BME280_temperature;BME280_humidity;BME280_pressure;Samples;Min_cycle;Max_cycle;Signal;HPM_P1;HPM_P2
2023/06/25 02:02:10;;;;;;;13.57;8.27;;;;;;;;;;4459958;27;20456;-74
2023/06/25 02:04:36;;;;;;;13.68;8.63;;;;;;;;;;4337821;33;20044;-75
2023/06/25 02:07:02;;;;;;;9.93;7.50;;;;;;;;;;4339492;33;20055;-74
2023/06/25 02:09:29;;;;;;;12.40;7.75;;;;;;;;;;4341247;33;20408;-75
2023/06/25 02:11:55;;;;;;;13.60;8.75;;;;;;;;;;4341739;33;20039;-74
2023/06/25 02:14:21;;;;;;;12.10;7.30;;;;;;;;;;4341529;33;20480;-74
2023/06/25 02:16:48;;;;;;;10.35;7.78;;;;;;;;;;4339519;33;20075;-74
2023/06/25 02:19:14;;;;;;;11.23;7.30;;;;;;;;;;4341583;33;20056;-74
2023/06/25 02:21:40;;;;;;;12.70;8.07;;;;;;;;;;4341355;33;20102;-74
2023/06/25 02:24:06;;;;;;;12.60;7.35;;;;;;;;;;4340983;33;20048;-74
2023/06/25 02:26:33;;;;;;;9.57;8.45;;;;;;;;;;4341111;33;20442;-75
2023/06/25 02:28:59;;;;;;;11.50;6.85;;;;;;;;;;4339713;33;20450;-75
2023/06/25 02:31:25;;;;;;;12.05;7.75;;;;;;;;;;4341413;33;20062;-74
2023/06/25 02:33:52;;;;;;;8.63;6.70;;;;;;;;;;4341399;33;20062;-74
2023/06/25 02:36:18;;;;;;;17.20;8.68;;;;;;;;;;4341048;33;20091;-74
2023/06/25 02:38:45;;;;;;;12.40;6.90;;;;;;;;;;4339549;33;20052;-75
2023/06/25 02:41:11;;;;;;;13.02;7.90;;;;;;;;;;4336245;33;20414;-75
2023/06/25 02:43:37;;;;;;;13.55;7.15;;;;;;;;;;4326119;33;20070;-75
2023/06/25 02:46:03;;;;;;;11.25;7.72;;;;;;;;;;4326308;33;20053;-75
2023/06/25 02:48:30;;;;;;;10.90;7.45;;;;;;;;;;4326464;33;20052;-75
2023/06/25 02:50:56;;;;;;;11.95;7.87;;;;;;;;;;4325308;33;20123;-76
2023/06/25 02:53:22;;;;;;;13.10;7.87;;;;;;;;;;4328497;33;20098;-75
2023/06/25 02:55:48;;;;;;;11.45;7.00;;;;;;;;;;4340994;33;20036;-75
2023/06/25 02:58:14;;;;;;;13.88;7.65;;;;;;;;;;4340652;33;20077;-75
2023/06/25 03:00:40;;;;;;;13.32;7.28;;;;;;;;;;4340622;33;20044;-75
2023/06/25 03:03:07;;;;;;;11.98;7.80;;;;;;;;;;4339869;33;20375;-77
2023/06/25 03:05:33;;;;;;;10.60;7.05;;;;;;;;;;4339439;33;20077;-75
2023/06/25 03:07:59;;;;;;;14.68;6.97;;;;;;;;;;4339655;33;20291;-75
2023/06/25 03:10:28;;;;;;;13.98;7.30;;;;;;;;;;4340570;33;20037;-75
2023/06/25 03:12:54;;;;;;;16.60;7.75;;;;;;;;;;4340478;33;20062;-75
2023/06/25 03:15:20;;;;;;;12.15;7.35;;;;;;;;;;4322287;33;20041;-76
2023/06/25 03:17:47;;;;;;;9.50;6.37;;;;;;;;;;4320402;33;20070;-76
2023/06/25 03:20:13;;;;;;;9.55;6.90;;;;;;;;;;4323213;33;20066;-75
2023/06/25 03:22:40;;;;;;;15.23;6.47;;;;;;;;;;4321185;33;20062;-75
2023/06/25 03:25:07;;;;;;;10.25;6.45;;;;;;;;;;4308682;33;20082;-75
2023/06/25 03:27:34;;;;;;;8.23;6.78;;;;;;;;;;4307451;33;20066;-76
2023/06/25 03:30:00;;;;;;;14.30;7.03;;;;;;;;;;4307133;33;20067;-75
2023/06/25 03:32:27;;;;;;;9.90;5.95;;;;;;;;;;4307331;33;20071;-76
2023/06/25 03:34:55;;;;;;;9.57;6.55;;;;;;;;;;4308750;33;20145;-75
2023/06/25 03:37:22;;;;;;;16.60;6.78;;;;;;;;;;4308497;33;20066;-75
2023/06/25 03:39:48;;;;;;;7.95;6.22;;;;;;;;;;4307211;33;20088;-75
2023/06/25 03:42:14;;;;;;;16.48;6.57;;;;;;;;;;4308197;33;20371;-75
2023/06/25 03:44:49;;;;;;;9.65;5.87;;;;;;;;;;4308087;33;20056;-75
2023/06/25 03:47:17;;;;;;;13.60;6.57;;;;;;;;;;4293660;33;20052;-74
2023/06/25 03:49:44;;;;;;;8.32;6.35;;;;;;;;;;4293184;33;20059;-76
2023/06/25 03:52:11;;;;;;;6.90;5.25;;;;;;;;;;4290571;33;20049;-75
2023/06/25 03:54:37;;;;;;;7.57;5.85;;;;;;;;;;4277778;33;20045;-75
2023/06/25 03:57:04;;;;;;;9.68;7.32;;;;;;;;;;4277862;33;20072;-75
2023/06/25 03:59:31;;;;;;;9.35;6.93;;;;;;;;;;4279286;33;20544;-75
2023/06/25 04:01:58;;;;;;;12.35;6.00;;;;;;;;;;4279126;33;20075;-75
2023/06/25 04:04:24;;;;;;;12.25;6.85;;;;;;;;;;4274439;33;20067;-76
2023/06/25 04:06:50;;;;;;;8.65;5.97;;;;;;;;;;4250964;33;20136;-76
2023/06/25 04:09:16;;;;;;;6.43;5.70;;;;;;;;;;4268266;33;20092;-75
2023/06/25 04:11:43;;;;;;;10.07;6.07;;;;;;;;;;4279238;33;20384;-76
2023/06/25 04:14:09;;;;;;;10.50;6.15;;;;;;;;;;4277717;33;20152;-75
2023/06/25 04:16:42;;;;;;;7.45;6.65;;;;;;;;;;4277948;33;20075;-74
2023/06/25 04:19:09;;;;;;;8.07;5.53;;;;;;;;;;4279089;33;20042;-75
2023/06/25 04:21:36;;;;;;;9.88;6.12;;;;;;;;;;4279210;33;20418;-75
2023/06/25 04:24:02;;;;;;;8.30;5.50;;;;;;;;;;4290624;33;20033;-74
2023/06/25 04:26:29;;;;;;;6.32;5.62;;;;;;;;;;4317715;33;20056;-76
2023/06/25 04:28:55;;;;;;;11.55;5.90;;;;;;;;;;4324984;33;20082;-74
2023/06/25 04:31:25;;;;;;;7.70;5.72;;;;;;;;;;4324836;33;20044;-74
2023/06/25 04:33:51;;;;;;;7.75;5.32;;;;;;;;;;4331464;33;20039;-74
2023/06/25 04:36:18;;;;;;;7.10;5.90;;;;;;;;;;4339037;33;20074;-76
2023/06/25 04:38:46;;;;;;;7.55;5.53;;;;;;;;;;4338594;33;20073;-76
2023/06/25 04:41:12;;;;;;;9.98;5.57;;;;;;;;;;4339472;33;20044;-75
2023/06/25 04:43:38;;;;;;;10.60;4.95;;;;;;;;;;4339407;33;20456;-75
2023/06/25 04:46:06;;;;;;;6.78;4.95;;;;;;;;;;4339370;33;20339;-76
2023/06/25 04:48:33;;;;;;;7.03;5.12;;;;;;;;;;4338006;33;20052;-75
2023/06/25 04:50:59;;;;;;;9.30;4.55;;;;;;;;;;4307123;33;20067;-75
2023/06/25 04:53:26;;;;;;;6.55;4.25;;;;;;;;;;4307647;33;20047;-74
2023/06/25 04:55:53;;;;;;;9.45;4.68;;;;;;;;;;4307856;33;20069;-75
2023/06/25 04:58:19;;;;;;;4.82;4.05;;;;;;;;;;4277004;33;20128;-76
2023/06/25 05:00:45;;;;;;;6.35;4.03;;;;;;;;;;4277816;33;20090;-74
2023/06/25 05:03:11;;;;;;;5.00;4.47;;;;;;;;;;4278626;33;20383;-74
2023/06/25 05:05:37;;;;;;;7.35;4.68;;;;;;;;;;4255954;33;20054;-74
2023/06/25 05:08:04;;;;;;;11.32;4.15;;;;;;;;;;4250129;33;20384;-74
2023/06/25 05:10:30;;;;;;;5.97;4.15;;;;;;;;;;4249294;33;20061;-75
2023/06/25 05:13:04;;;;;;;11.30;4.03;;;;;;;;;;4249391;33;20067;-75
2023/06/25 05:15:39;;;;;;;11.05;4.35;;;;;;;;;;4249857;33;20104;-74
2023/06/25 05:18:08;;;;;;;8.63;3.78;;;;;;;;;;4249508;33;20031;-75
2023/06/25 05:20:35;;;;;;;9.77;4.40;;;;;;;;;;4248969;33;20132;-75
2023/06/25 05:23:02;;;;;;;5.62;3.97;;;;;;;;;;4273805;33;21047;-75
2023/06/25 05:25:28;;;;;;;5.22;3.95;;;;;;;;;;4290715;33;20103;-75
2023/06/25 05:27:55;;;;;;;4.95;4.05;;;;;;;;;;4292725;33;20050;-75
2023/06/25 05:30:21;;;;;;;4.53;3.12;;;;;;;;;;4261301;33;20083;-76
2023/06/25 05:32:47;;;;;;;4.32;3.72;;;;;;;;;;4254797;33;20094;-76
2023/06/25 05:35:13;;;;;;;9.20;4.25;;;;;;;;;;4259792;33;20071;-76
2023/06/25 05:37:39;;;;;;;7.50;4.10;;;;;;;;;;4279789;33;20029;-75
2023/06/25 05:40:12;;;;;;;8.65;4.60;;;;;;;;;;4279629;33;20069;-76
2023/06/25 05:42:38;;;;;;;4.65;3.85;;;;;;;;;;4278805;33;20092;-75
2023/06/25 05:45:05;;;;;;;6.93;3.95;;;;;;;;;;4280057;33;20045;-77
2023/06/25 05:47:31;;;;;;;5.57;4.45;;;;;;;;;;4280661;33;20079;-76
2023/06/25 05:49:57;;;;;;;4.55;4.10;;;;;;;;;;4279926;33;20505;-76
2023/06/25 05:52:23;;;;;;;11.55;3.75;;;;;;;;;;4281164;33;20061;-75
2023/06/25 05:54:49;;;;;;;5.47;4.43;;;;;;;;;;4279051;33;20063;-76
2023/06/25 05:57:16;;;;;;;5.87;3.78;;;;;;;;;;4280855;33;20473;-76
2023/06/25 05:59:42;;;;;;;4.53;4.12;;;;;;;;;;4280385;33;20057;-75
2023/06/25 06:02:08;;;;;;;5.00;4.07;;;;;;;;;;4302671;33;20163;-74
2023/06/25 06:04:34;;;;;;;4.30;3.90;;;;;;;;;;4309094;33;20111;-75
2023/06/25 06:07:00;;;;;;;9.02;4.72;;;;;;;;;;4308116;33;20067;-75
2023/06/25 06:09:27;;;;;;;4.53;4.12;;;;;;;;;;4308724;33;20246;-75
2023/06/25 06:11:53;;;;;;;7.90;4.40;;;;;;;;;;4291116;33;20067;-75
2023/06/25 06:14:19;;;;;;;6.10;4.50;;;;;;;;;;4302960;33;20045;-74
2023/06/25 06:16:45;;;;;;;8.45;4.80;;;;;;;;;;4306273;33;20041;-75
2023/06/25 06:19:12;;;;;;;8.02;4.40;;;;;;;;;;4309384;33;20065;-75
2023/06/25 06:21:38;;;;;;;13.55;4.70;;;;;;;;;;4309772;33;20217;-73
2023/06/25 06:24:04;;;;;;;4.90;3.92;;;;;;;;;;4304465;33;20446;-75
2023/06/25 06:26:31;;;;;;;5.70;4.55;;;;;;;;;;4308697;33;20433;-76
2023/06/25 06:29:03;;;;;;;8.70;4.65;;;;;;;;;;4287720;33;20065;-77
2023/06/25 06:31:32;;;;;;;7.15;4.03;;;;;;;;;;4251028;33;20034;-74
2023/06/25 06:33:58;;;;;;;8.57;4.93;;;;;;;;;;4229579;33;20085;-75
2023/06/25 06:36:25;;;;;;;7.60;4.32;;;;;;;;;;4237781;33;20072;-75
2023/06/25 06:38:51;;;;;;;6.75;4.53;;;;;;;;;;4228862;33;20072;-75
2023/06/25 06:41:17;;;;;;;4.85;4.32;;;;;;;;;;4226487;33;20255;-74
2023/06/25 06:43:44;;;;;;;7.60;4.28;;;;;;;;;;4220744;33;20527;-75
2023/06/25 06:46:10;;;;;;;8.85;4.95;;;;;;;;;;4213916;34;20083;-75
2023/06/25 06:48:43;;;;;;;7.18;4.72;;;;;;;;;;4209738;34;20103;-75
2023/06/25 06:51:09;;;;;;;9.43;5.78;;;;;;;;;;4209329;34;20254;-75
2023/06/25 06:53:35;;;;;;;6.97;5.07;;;;;;;;;;4208656;34;20135;-76
2023/06/25 06:56:01;;;;;;;4.82;4.43;;;;;;;;;;4208946;34;20039;-76
2023/06/25 06:58:27;;;;;;;5.12;4.40;;;;;;;;;;4221935;34;20478;-76
2023/06/25 07:00:54;;;;;;;8.88;4.60;;;;;;;;;;4239976;33;20034;-76
2023/06/25 07:03:20;;;;;;;7.72;5.05;;;;;;;;;;4249865;33;20206;-74
2023/06/25 07:05:47;;;;;;;7.82;5.00;;;;;;;;;;4260604;33;20458;-74
2023/06/25 07:08:13;;;;;;;13.82;5.53;;;;;;;;;;4264462;33;20054;-75
2023/06/25 07:10:39;;;;;;;9.02;5.15;;;;;;;;;;4264880;33;20042;-75
2023/06/25 07:13:05;;;;;;;11.63;5.68;;;;;;;;;;4283053;33;20094;-77
2023/06/25 07:15:31;;;;;;;9.93;5.45;;;;;;;;;;4292369;33;20057;-75
2023/06/25 07:17:58;;;;;;;10.68;5.87;;;;;;;;;;4294028;33;20479;-75
2023/06/25 07:20:24;;;;;;;8.70;6.07;;;;;;;;;;4280216;33;20070;-76
2023/06/25 07:22:50;;;;;;;7.32;5.47;;;;;;;;;;4264449;33;20079;-75
2023/06/25 07:25:17;;;;;;;13.80;5.85;;;;;;;;;;4261764;33;20037;-76
2023/06/25 07:27:43;;;;;;;9.20;5.10;;;;;;;;;;4265087;33;21003;-76
2023/06/25 07:30:09;;;;;;;8.02;4.97;;;;;;;;;;4274965;33;20486;-75
2023/06/25 07:32:36;;;;;;;6.68;5.05;;;;;;;;;;4276691;33;20519;-76
2023/06/25 07:35:02;;;;;;;10.77;5.47;;;;;;;;;;4279366;33;20037;-78
2023/06/25 07:37:28;;;;;;;10.77;4.53;;;;;;;;;;4277503;33;20444;-76
2023/06/25 07:39:54;;;;;;;7.78;4.95;;;;;;;;;;4264900;33;20841;-76
2023/06/25 07:42:20;;;;;;;7.82;5.82;;;;;;;;;;4264617;33;20076;-76
2023/06/25 07:44:46;;;;;;;7.90;4.68;;;;;;;;;;4264960;33;20100;-76
2023/06/25 07:47:13;;;;;;;17.45;4.60;;;;;;;;;;4264124;33;20189;-75
2023/06/25 07:49:39;;;;;;;14.07;5.60;;;;;;;;;;4261913;33;20107;-76
2023/06/25 07:52:05;;;;;;;6.60;4.78;;;;;;;;;;4274962;33;20213;-76
2023/06/25 07:54:31;;;;;;;12.60;5.50;;;;;;;;;;4278508;33;20041;-76
2023/06/25 07:56:57;;;;;;;6.80;5.05;;;;;;;;;;4277585;33;20061;-75
2023/06/25 07:59:23;;;;;;;6.90;4.55;;;;;;;;;;4291348;33;20090;-77
2023/06/25 08:01:50;;;;;;;6.95;4.70;;;;;;;;;;4289828;33;20061;-77
2023/06/25 08:04:16;;;;;;;6.97;4.53;;;;;;;;;;4289178;33;20139;-76
2023/06/25 08:06:43;;;;;;;12.10;4.97;;;;;;;;;;4281977;33;20075;-76
2023/06/25 08:09:09;;;;;;;4.70;3.97;;;;;;;;;;4291781;33;20112;-77
2023/06/25 08:11:36;;;;;;;7.07;4.80;;;;;;;;;;4287334;33;20056;-76
2023/06/25 08:14:02;;;;;;;8.52;5.03;;;;;;;;;;4290875;33;20447;-77
2023/06/25 08:16:29;;;;;;;7.60;4.03;;;;;;;;;;4293491;33;20208;-75
2023/06/25 08:18:55;;;;;;;7.22;4.95;;;;;;;;;;4287751;33;20067;-76
2023/06/25 08:21:21;;;;;;;8.73;5.30;;;;;;;;;;4291531;33;20074;-76
2023/06/25 08:23:47;;;;;;;7.72;4.97;;;;;;;;;;4291874;33;20053;-77
2023/06/25 08:26:15;;;;;;;6.18;5.57;;;;;;;;;;4291662;33;20492;-74
2023/06/25 08:28:42;;;;;;;10.60;6.00;;;;;;;;;;4292609;33;20059;-75
2023/06/25 08:31:09;;;;;;;10.38;5.50;;;;;;;;;;4276410;33;20057;-75
2023/06/25 08:33:36;;;;;;;7.78;5.05;;;;;;;;;;4278423;33;20067;-74
2023/06/25 08:36:02;;;;;;;8.98;5.28;;;;;;;;;;4275058;33;20058;-77
2023/06/25 08:38:30;;;;;;;8.07;4.80;;;;;;;;;;4279023;33;20084;-73
2023/06/25 08:40:57;;;;;;;5.72;4.95;;;;;;;;;;4293182;33;20111;-74
2023/06/25 08:43:23;;;;;;;6.47;4.78;;;;;;;;;;4296768;33;20040;-75
2023/06/25 08:45:49;;;;;;;9.20;4.90;;;;;;;;;;4293784;33;20106;-74
2023/06/25 08:48:16;;;;;;;10.50;5.30;;;;;;;;;;4292617;33;20392;-74
2023/06/25 08:50:45;;;;;;;12.57;5.70;;;;;;;;;;4293534;33;20360;-75
2023/06/25 08:53:11;;;;;;;8.02;4.80;;;;;;;;;;4291394;33;20064;-74
2023/06/25 08:55:39;;;;;;;7.50;4.28;;;;;;;;;;4290679;33;20049;-74
2023/06/25 08:58:05;;;;;;;10.10;4.90;;;;;;;;;;4296108;33;20037;-76
2023/06/25 09:00:32;;;;;;;12.82;4.32;;;;;;;;;;4292053;33;20057;-74
2023/06/25 09:02:58;;;;;;;12.27;5.90;;;;;;;;;;4326071;33;20488;-74
2023/06/25 09:05:25;;;;;;;5.57;4.97;;;;;;;;;;4339545;33;20059;-74
2023/06/25 09:07:51;;;;;;;10.23;5.00;;;;;;;;;;4339761;33;20055;-75
2023/06/25 09:10:19;;;;;;;9.40;4.55;;;;;;;;;;4339745;33;20043;-74
2023/06/25 09:12:46;;;;;;;5.43;4.53;;;;;;;;;;4341516;33;20059;-74
2023/06/25 09:15:12;;;;;;;6.70;4.43;;;;;;;;;;4340815;33;20496;-74
2023/06/25 09:17:38;;;;;;;4.72;4.22;;;;;;;;;;4321895;33;20049;-74
2023/06/25 09:20:06;;;;;;;9.52;4.40;;;;;;;;;;4320757;33;20056;-75
2023/06/25 09:22:32;;;;;;;7.95;4.12;;;;;;;;;;4319867;33;20048;-73
2023/06/25 09:24:59;;;;;;;5.00;4.00;;;;;;;;;;4321457;33;20060;-74
2023/06/25 09:27:25;;;;;;;7.00;4.57;;;;;;;;;;4294326;33;20048;-75
2023/06/25 09:29:55;;;;;;;4.70;4.25;;;;;;;;;;4293272;33;20064;-74
2023/06/25 09:32:27;;;;;;;10.38;4.25;;;;;;;;;;4293005;33;20041;-73
2023/06/25 09:34:53;;;;;;;5.50;3.95;;;;;;;;;;4309217;33;20132;-73
2023/06/25 09:37:20;;;;;;;7.57;3.70;;;;;;;;;;4323102;33;20518;-73
2023/06/25 09:39:47;;;;;;;6.70;4.60;;;;;;;;;;4324044;33;20127;-74
2023/06/25 09:42:13;;;;;;;4.95;3.80;;;;;;;;;;4321840;33;20117;-75
2023/06/25 09:44:40;;;;;;;5.12;4.50;;;;;;;;;;4323352;33;20100;-73
2023/06/25 09:47:07;;;;;;;6.35;4.12;;;;;;;;;;4322902;33;20078;-75
2023/06/25 09:49:33;;;;;;;5.53;4.87;;;;;;;;;;4309799;33;21127;-73
2023/06/25 09:52:04;;;;;;;5.47;4.35;;;;;;;;;;4282414;33;20139;-73
2023/06/25 09:54:31;;;;;;;6.72;4.37;;;;;;;;;;4281437;33;20063;-74
2023/06/25 09:56:57;;;;;;;7.97;4.55;;;;;;;;;;4281946;33;20046;-77
2023/06/25 09:59:26;;;;;;;6.28;4.25;;;;;;;;;;4258461;33;20066;-75
2023/06/25 10:01:52;;;;;;;10.07;4.68;;;;;;;;;;4264783;33;20062;-75
2023/06/25 10:04:19;;;;;;;4.62;4.10;;;;;;;;;;4265350;33;20289;-75
2023/06/25 10:06:45;;;;;;;16.65;9.38;;;;;;;;;;4249132;33;20173;-73
2023/06/25 10:09:12;;;;;;;6.93;4.60;;;;;;;;;;4235572;33;20043;-73
2023/06/25 10:11:48;;;;;;;5.60;4.20;;;;;;;;;;4236841;33;20406;-73
2023/06/25 10:14:14;;;;;;;6.50;4.20;;;;;;;;;;4235200;33;20062;-74
2023/06/25 10:16:51;;;;;;;4.62;3.72;;;;;;;;;;4236891;33;20090;-73
2023/06/25 10:19:21;;;;;;;4.32;3.60;;;;;;;;;;4251565;33;20042;-74
2023/06/25 10:21:57;;;;;;;7.32;4.10;;;;;;;;;;4246132;33;20038;-77
2023/06/25 10:24:23;;;;;;;4.07;3.35;;;;;;;;;;4238787;33;20116;-73
2023/06/25 10:26:52;;;;;;;13.98;3.70;;;;;;;;;;4251035;33;20076;-72
2023/06/25 10:29:19;;;;;;;4.20;3.53;;;;;;;;;;4252026;33;20113;-73
2023/06/25 10:31:45;;;;;;;6.28;4.07;;;;;;;;;;4257823;33;20488;-78
2023/06/25 10:34:13;;;;;;;3.70;3.20;;;;;;;;;;4258657;33;20190;-73
2023/06/25 10:36:49;;;;;;;10.30;3.92;;;;;;;;;;4264904;33;20406;-74
2023/06/25 10:39:16;;;;;;;5.82;3.83;;;;;;;;;;4265173;33;20054;-72
2023/06/25 10:41:46;;;;;;;6.60;4.50;;;;;;;;;;4298756;33;20071;-73
2023/06/25 10:44:12;;;;;;;5.55;3.75;;;;;;;;;;4301278;33;20498;-73
2023/06/25 10:46:38;;;;;;;4.18;3.53;;;;;;;;;;4304271;33;20080;-74
2023/06/25 10:49:10;;;;;;;6.07;4.00;;;;;;;;;;4293452;33;20057;-74
2023/06/25 10:51:37;;;;;;;6.45;3.33;;;;;;;;;;4287241;33;20067;-73
2023/06/25 10:54:04;;;;;;;8.35;4.15;;;;;;;;;;4308301;33;20126;-72
2023/06/25 10:56:32;;;;;;;7.43;4.32;;;;;;;;;;4318540;33;20123;-72
2023/06/25 10:58:58;;;;;;;5.80;3.85;;;;;;;;;;4318040;33;20071;-73
2023/06/25 11:01:37;;;;;;;3.25;2.92;;;;;;;;;;4455753;28;20113;-73
2023/06/25 11:04:12;;;;;;;4.93;3.70;;;;;;;;;;4322666;33;20096;-74
2023/06/25 11:06:38;;;;;;;19.42;3.53;;;;;;;;;;4321488;33;20044;-72
2023/06/25 11:09:06;;;;;;;5.07;3.90;;;;;;;;;;4322361;33;20077;-72
2023/06/25 11:11:36;;;;;;;3.83;3.35;;;;;;;;;;4309718;33;20048;-72
2023/06/25 11:14:04;;;;;;;3.08;2.87;;;;;;;;;;4309691;33;20067;-73
2023/06/25 11:16:31;;;;;;;4.35;3.70;;;;;;;;;;4313529;33;20070;-71
2023/06/25 11:18:57;;;;;;;14.90;3.90;;;;;;;;;;4298184;33;20055;-73
2023/06/25 11:21:24;;;;;;;3.92;3.28;;;;;;;;;;4307642;33;20061;-72
2023/06/25 11:23:51;;;;;;;13.43;3.00;;;;;;;;;;4293728;33;20579;-74
2023/06/25 11:26:17;;;;;;;4.80;3.05;;;;;;;;;;4293237;33;20070;-78
2023/06/25 11:28:45;;;;;;;3.35;3.05;;;;;;;;;;4292128;33;20049;-73
2023/06/25 11:31:14;;;;;;;4.10;2.78;;;;;;;;;;4292723;33;20062;-74
2023/06/25 11:33:41;;;;;;;4.40;3.08;;;;;;;;;;4292047;33;20040;-74
2023/06/25 11:36:09;;;;;;;4.03;3.37;;;;;;;;;;4293789;33;20053;-74
2023/06/25 11:38:36;;;;;;;3.10;2.80;;;;;;;;;;4297605;33;20252;-74
2023/06/25 11:41:02;;;;;;;6.97;3.22;;;;;;;;;;4314175;33;20040;-73
2023/06/25 11:43:31;;;;;;;6.70;3.25;;;;;;;;;;4293462;33;20191;-74
2023/06/25 11:46:01;;;;;;;3.00;2.70;;;;;;;;;;4293901;33;20045;-73
2023/06/25 11:48:29;;;;;;;3.77;3.37;;;;;;;;;;4293301;33;20079;-73
2023/06/25 11:51:02;;;;;;;3.97;2.72;;;;;;;;;;4290256;33;20055;-73
2023/06/25 11:53:34;;;;;;;3.08;2.67;;;;;;;;;;4292975;33;20050;-74
2023/06/25 11:56:01;;;;;;;4.35;2.67;;;;;;;;;;4307218;33;20057;-74
2023/06/25 11:58:28;;;;;;;4.12;2.92;;;;;;;;;;4306814;33;20074;-73
2023/06/25 12:00:54;;;;;;;3.53;2.80;;;;;;;;;;4305025;33;20135;-73
2023/06/25 12:03:21;;;;;;;5.87;5.30;;;;;;;;;;4306429;33;20323;-74
2023/06/25 12:05:47;;;;;;;5.60;2.87;;;;;;;;;;4306390;33;20070;-74
2023/06/25 12:08:13;;;;;;;2.87;2.67;;;;;;;;;;4306664;33;20461;-74
2023/06/25 12:10:40;;;;;;;2.70;2.50;;;;;;;;;;4306988;33;20061;-74
2023/06/25 12:13:06;;;;;;;2.70;2.50;;;;;;;;;;4307050;33;20044;-74
2023/06/25 12:15:32;;;;;;;3.30;3.00;;;;;;;;;;4329287;33;20384;-73
2023/06/25 12:17:58;;;;;;;2.97;2.67;;;;;;;;;;4338920;33;20562;-73
2023/06/25 12:20:25;;;;;;;5.32;2.70;;;;;;;;;;4341790;32;20052;-74
2023/06/25 12:22:51;;;;;;;2.83;2.62;;;;;;;;;;4340919;32;20069;-75
2023/06/25 12:25:17;;;;;;;4.57;3.00;;;;;;;;;;4337310;33;20040;-74
2023/06/25 12:27:44;;;;;;;2.58;2.40;;;;;;;;;;4336603;33;20052;-74
2023/06/25 12:30:13;;;;;;;2.58;2.25;;;;;;;;;;4320793;33;20294;-73
2023/06/25 12:32:40;;;;;;;5.55;3.05;;;;;;;;;;4320425;33;20181;-73
2023/06/25 12:35:09;;;;;;;2.55;2.35;;;;;;;;;;4320652;33;20403;-74
2023/06/25 12:40:09;;;;;;;4.93;2.55;;;;;;;;;;4322691;33;20111;-74
2023/06/25 12:42:35;;;;;;;2.65;2.45;;;;;;;;;;4320330;33;20501;-73
2023/06/25 12:45:02;;;;;;;3.50;2.72;;;;;;;;;;4320918;33;20048;-72
2023/06/25 12:47:29;;;;;;;2.58;2.40;;;;;;;;;;4320640;33;20095;-73
2023/06/25 12:49:56;;;;;;;2.70;2.03;;;;;;;;;;4303822;33;20041;-74
2023/06/25 12:52:22;;;;;;;2.95;2.53;;;;;;;;;;4306597;33;20393;-74
2023/06/25 12:54:50;;;;;;;2.60;2.40;;;;;;;;;;4311624;33;20078;-73
2023/06/25 12:57:16;;;;;;;3.42;2.55;;;;;;;;;;4308880;33;20040;-75
2023/06/25 12:59:47;;;;;;;3.95;2.55;;;;;;;;;;4305705;33;20507;-73
2023/06/25 13:02:18;;;;;;;2.62;2.50;;;;;;;;;;4315738;33;20492;-73
2023/06/25 13:04:47;;;;;;;3.03;2.72;;;;;;;;;;4318468;33;20569;-74
2023/06/25 13:07:13;;;;;;;2.53;2.22;;;;;;;;;;4321919;33;20070;-76
2023/06/25 13:09:41;;;;;;;2.62;2.30;;;;;;;;;;4321085;33;20459;-74
2023/06/25 13:12:08;;;;;;;2.60;2.35;;;;;;;;;;4310480;33;20025;-76
2023/06/25 13:14:34;;;;;;;2.30;2.20;;;;;;;;;;4304574;33;20068;-75
2023/06/25 13:17:00;;;;;;;3.75;2.30;;;;;;;;;;4305462;33;20060;-75
2023/06/25 13:19:27;;;;;;;2.67;2.47;;;;;;;;;;4305351;33;20049;-75
2023/06/25 13:21:56;;;;;;;2.20;2.10;;;;;;;;;;4321586;33;20407;-75
2023/06/25 13:24:23;;;;;;;2.50;2.30;;;;;;;;;;4323073;33;20051;-75
2023/06/25 13:26:51;;;;;;;5.62;2.70;;;;;;;;;;4307711;33;20142;-76
2023/06/25 13:29:17;;;;;;;2.42;2.22;;;;;;;;;;4310978;33;20115;-75
2023/06/25 13:31:43;;;;;;;2.78;2.47;;;;;;;;;;4315689;33;20056;-75
2023/06/25 13:34:10;;;;;;;7.62;2.37;;;;;;;;;;4304999;33;20555;-75
2023/06/25 13:36:36;;;;;;;3.10;2.33;;;;;;;;;;4303956;33;20070;-74
2023/06/25 13:39:02;;;;;;;2.60;2.40;;;;;;;;;;4305433;33;20049;-76
2023/06/25 13:41:28;;;;;;;2.17;2.08;;;;;;;;;;4306247;33;20094;-76
2023/06/25 13:43:55;;;;;;;4.37;2.45;;;;;;;;;;4300037;33;20040;-75
2023/06/25 13:46:21;;;;;;;4.25;3.40;;;;;;;;;;4290991;33;20469;-75
2023/06/25 13:48:54;;;;;;;2.55;2.35;;;;;;;;;;4293891;33;20075;-76
2023/06/25 13:51:20;;;;;;;2.92;2.60;;;;;;;;;;4279567;33;20061;-75
2023/06/25 13:53:47;;;;;;;7.30;2.70;;;;;;;;;;4274167;33;20098;-76
2023/06/25 13:56:13;;;;;;;2.95;2.65;;;;;;;;;;4271688;33;20067;-76
2023/06/25 13:58:39;;;;;;;2.80;2.60;;;;;;;;;;4263137;33;20625;-76
2023/06/25 14:01:05;;;;;;;3.60;2.17;;;;;;;;;;4240639;33;20100;-75
2023/06/25 14:03:32;;;;;;;5.18;2.05;;;;;;;;;;4235360;33;20600;-76
2023/06/25 14:05:59;;;;;;;3.12;2.17;;;;;;;;;;4247427;33;20042;-75
2023/06/25 14:08:28;;;;;;;2.92;2.05;;;;;;;;;;4255577;33;20060;-75
2023/06/25 14:11:00;;;;;;;3.17;1.83;;;;;;;;;;4265191;33;20059;-75
2023/06/25 14:13:27;;;;;;;2.05;1.77;;;;;;;;;;4266053;33;20375;-75
2023/06/25 14:15:54;;;;;;;2.75;2.20;;;;;;;;;;4265869;33;20033;-75
2023/06/25 14:18:24;;;;;;;3.30;2.10;;;;;;;;;;4264967;33;20857;-75
2023/06/25 14:20:51;;;;;;;2.92;2.50;;;;;;;;;;4266910;33;20105;-75
2023/06/25 14:23:18;;;;;;;2.10;2.00;;;;;;;;;;4264126;33;20101;-75
2023/06/25 14:25:46;;;;;;;2.97;2.28;;;;;;;;;;4294106;33;20106;-75
2023/06/25 14:28:13;;;;;;;2.85;2.58;;;;;;;;;;4279200;33;20071;-75
2023/06/25 14:30:42;;;;;;;3.15;2.12;;;;;;;;;;4293452;33;20046;-75
2023/06/25 14:33:10;;;;;;;2.42;2.28;;;;;;;;;;4293991;33;20033;-76
2023/06/25 14:35:36;;;;;;;2.22;2.10;;;;;;;;;;4293329;33;20055;-75
2023/06/25 14:38:05;;;;;;;2.40;2.20;;;;;;;;;;4294347;33;20082;-75
2023/06/25 14:40:32;;;;;;;2.25;1.98;;;;;;;;;;4266253;33;20038;-75
2023/06/25 14:42:58;;;;;;;7.43;2.72;;;;;;;;;;4264359;33;20058;-76
2023/06/25 14:45:24;;;;;;;2.40;2.20;;;;;;;;;;4265060;33;20448;-75
2023/06/25 14:47:53;;;;;;;3.15;2.10;;;;;;;;;;4264374;33;20435;-75
2023/06/25 14:50:20;;;;;;;5.12;2.20;;;;;;;;;;4265985;33;20083;-75
2023/06/25 14:52:49;;;;;;;2.20;2.10;;;;;;;;;;4265356;33;20541;-75
2023/06/25 14:55:19;;;;;;;2.87;2.12;;;;;;;;;;4264796;33;20053;-76
2023/06/25 14:57:49;;;;;;;2.50;2.03;;;;;;;;;;4263603;33;20093;-75
2023/06/25 15:00:15;;;;;;;2.60;2.40;;;;;;;;;;4292237;33;20147;-76
2023/06/25 15:02:42;;;;;;;3.08;2.47;;;;;;;;;;4291855;33;20038;-75
2023/06/25 15:05:08;;;;;;;2.45;2.10;;;;;;;;;;4294408;33;20054;-76
2023/06/25 15:07:37;;;;;;;2.12;2.03;;;;;;;;;;4292752;33;20060;-77
2023/06/25 15:10:06;;;;;;;8.35;2.80;;;;;;;;;;4292737;33;20037;-77
2023/06/25 15:12:34;;;;;;;2.58;2.37;;;;;;;;;;4320753;33;20071;-74
2023/06/25 15:15:01;;;;;;;5.25;2.53;;;;;;;;;;4323751;33;20073;-77
2023/06/25 15:17:39;;;;;;;2.58;2.05;;;;;;;;;;4307697;33;20066;-76
2023/06/25 15:20:08;;;;;;;3.78;2.75;;;;;;;;;;4306451;33;20144;-75
2023/06/25 15:22:36;;;;;;;2.30;2.20;;;;;;;;;;4307686;33;20099;-76
2023/06/25 15:25:02;;;;;;;2.80;2.60;;;;;;;;;;4308631;33;20033;-75
2023/06/25 15:27:31;;;;;;;3.53;2.62;;;;;;;;;;4278527;33;20080;-75
2023/06/25 15:29:57;;;;;;;2.80;2.60;;;;;;;;;;4278369;33;20126;-75
2023/06/25 15:32:24;;;;;;;3.55;2.85;;;;;;;;;;4278045;33;20055;-76
2023/06/25 15:34:50;;;;;;;2.97;2.78;;;;;;;;;;4279408;33;20059;-75
2023/06/25 15:37:17;;;;;;;4.28;2.58;;;;;;;;;;4279843;33;20057;-75
2023/06/25 15:39:45;;;;;;;3.45;2.90;;;;;;;;;;4278620;33;20045;-75
2023/06/25 15:42:13;;;;;;;3.83;2.30;;;;;;;;;;4277091;33;20430;-76
2023/06/25 15:44:43;;;;;;;4.20;2.90;;;;;;;;;;4265171;33;20558;-75
2023/06/25 15:47:17;;;;;;;7.72;2.58;;;;;;;;;;4265411;33;20059;-77
2023/06/25 15:49:45;;;;;;;2.67;2.37;;;;;;;;;;4262474;33;20484;-76
2023/06/25 15:52:11;;;;;;;4.50;2.90;;;;;;;;;;4264742;33;20058;-76
2023/06/25 15:54:37;;;;;;;3.42;2.87;;;;;;;;;;4273408;33;20073;-77
2023/06/25 15:57:03;;;;;;;3.00;2.80;;;;;;;;;;4294015;33;20191;-77
2023/06/25 15:59:30;;;;;;;2.50;2.30;;;;;;;;;;4322224;33;20835;-77
2023/06/25 16:01:56;;;;;;;4.75;2.80;;;;;;;;;;4324730;33;20385;-76
2023/06/25 16:04:22;;;;;;;2.53;2.33;;;;;;;;;;4309049;33;20129;-77
2023/06/25 16:06:51;;;;;;;3.75;2.22;;;;;;;;;;4319739;33;20080;-77
2023/06/25 16:09:17;;;;;;;4.35;3.35;;;;;;;;;;4322494;33;20213;-76
2023/06/25 16:11:43;;;;;;;4.37;2.42;;;;;;;;;;4322780;33;20064;-76
2023/06/25 16:14:09;;;;;;;2.75;2.62;;;;;;;;;;4306252;33;20233;-77
2023/06/25 16:16:35;;;;;;;3.62;3.10;;;;;;;;;;4307440;33;20044;-76
2023/06/25 16:19:02;;;;;;;7.75;2.92;;;;;;;;;;4306726;33;20071;-78
2023/06/25 16:21:28;;;;;;;6.22;2.60;;;;;;;;;;4307367;33;20025;-75
2023/06/25 16:23:54;;;;;;;5.75;3.20;;;;;;;;;;4307586;33;20123;-74
2023/06/25 16:26:20;;;;;;;2.92;2.72;;;;;;;;;;4306384;33;20440;-75
2023/06/25 16:28:46;;;;;;;3.75;2.65;;;;;;;;;;4307908;33;20056;-74
2023/06/25 16:31:12;;;;;;;8.32;2.60;;;;;;;;;;4305735;33;20044;-76
2023/06/25 16:33:39;;;;;;;2.87;2.67;;;;;;;;;;4305010;33;20484;-75
2023/06/25 16:36:05;;;;;;;4.62;2.47;;;;;;;;;;4307140;33;20048;-75
2023/06/25 16:38:31;;;;;;;3.17;2.87;;;;;;;;;;4291436;33;20146;-75
2023/06/25 16:40:58;;;;;;;4.20;3.22;;;;;;;;;;4291720;33;20054;-75
2023/06/25 16:43:24;;;;;;;12.85;2.80;;;;;;;;;;4291491;33;20036;-75